createdAt,value
2017-12-08T00:01:12.860Z,82
2017-12-08T00:01:49.437Z,82
2017-12-08T00:02:51.940Z,83
2017-12-08T00:03:49.036Z,83
2017-12-08T00:12:59.208Z,84
2017-12-08T00:13:13.176Z,84
2017-12-08T00:14:10.274Z,85
2017-12-08T00:15:11.729Z,85
2017-12-08T00:16:16.513Z,85
2017-12-08T00:18:13.118Z,86
2017-12-08T00:19:13.647Z,86
2017-12-08T00:20:12.432Z,86
2017-12-08T00:21:13.968Z,86
2017-12-08T00:22:13.441Z,86
2017-12-08T00:23:10.090Z,86
2017-12-08T00:24:12.201Z,86
2017-12-08T00:25:11.726Z,87
2017-12-08T00:26:12.228Z,87
2017-12-08T00:27:10.272Z,87
2017-12-08T00:28:16.229Z,87
2017-12-08T00:29:15.364Z,87
2017-12-08T00:30:13.562Z,87
2017-12-08T00:31:10.629Z,87
2017-12-08T00:32:10.159Z,87
2017-12-08T00:33:18.600Z,88
2017-12-08T00:34:13.602Z,88
2017-12-08T00:35:15.234Z,88
2017-12-08T00:36:12.721Z,88
2017-12-08T00:37:12.081Z,88
2017-12-08T00:38:11.597Z,87
2017-12-08T00:39:12.843Z,87
2017-12-08T00:42:10.967Z,88
2017-12-08T00:43:17.499Z,88
2017-12-08T00:44:11.777Z,88
2017-12-08T00:45:10.813Z,88
2017-12-08T00:46:15.963Z,88
2017-12-08T00:47:23.782Z,88
2017-12-08T00:48:12.935Z,88
2017-12-08T00:49:13.692Z,88
2017-12-08T00:51:12.435Z,88
2017-12-08T00:53:14.773Z,89
2017-12-08T00:54:13.061Z,89
2017-12-08T00:55:14.110Z,89
2017-12-08T00:56:22.427Z,89
2017-12-08T00:57:17.661Z,89
2017-12-08T00:59:39.162Z,89
2017-12-08T01:00:11.395Z,89
2017-12-08T01:01:26.919Z,90
2017-12-08T01:02:15.223Z,90
2017-12-08T01:03:14.634Z,90
2017-12-08T01:04:13.371Z,90
2017-12-08T01:05:14.911Z,90
2017-12-08T01:06:27.919Z,91
2017-12-08T01:08:16.609Z,91
2017-12-08T01:09:17.579Z,91
2017-12-08T01:10:09.923Z,91
2017-12-08T01:11:14.457Z,91
2017-12-08T01:12:22.294Z,91
2017-12-08T01:13:16.015Z,91
2017-12-08T01:14:21.313Z,91
2017-12-08T01:15:18.423Z,91
2017-12-08T01:16:11.181Z,92
2017-12-08T01:17:10.582Z,92
2017-12-08T01:18:14.051Z,92
2017-12-08T01:19:13.247Z,92
2017-12-08T01:20:14.904Z,92
2017-12-08T01:21:11.646Z,92
2017-12-08T01:22:14.433Z,92
2017-12-08T01:23:16.720Z,92
2017-12-08T01:25:13.859Z,92
2017-12-08T01:26:15.307Z,93
2017-12-08T01:27:15.221Z,93
2017-12-08T01:28:14.757Z,93
2017-12-08T01:29:15.091Z,93
2017-12-08T01:30:13.389Z,93
2017-12-08T01:31:15.635Z,93
2017-12-08T01:32:11.893Z,93
2017-12-08T01:33:15.251Z,93
2017-12-08T01:34:16.278Z,93
2017-12-08T01:35:11.419Z,93
2017-12-08T01:36:12.060Z,93
2017-12-08T01:37:13.440Z,93
2017-12-08T01:38:13.247Z,93
2017-12-08T01:39:20.457Z,93
2017-12-08T01:41:19.988Z,93
2017-12-08T01:43:19.761Z,93
2017-12-08T01:45:12.917Z,93
2017-12-08T01:46:17.107Z,93
2017-12-08T01:47:16.411Z,93
2017-12-08T01:48:13.842Z,93
2017-12-08T01:49:14.158Z,94
2017-12-08T01:50:20.663Z,94
2017-12-08T01:51:12.680Z,94
2017-12-08T01:53:14.891Z,94
2017-12-08T01:54:11.032Z,94
2017-12-08T01:55:16.987Z,94
2017-12-08T01:56:12.832Z,94
2017-12-08T01:57:13.463Z,94
2017-12-08T01:58:09.273Z,94
2017-12-08T01:59:12.173Z,94
2017-12-08T02:00:10.154Z,94
2017-12-08T02:01:11.972Z,94
2017-12-08T02:02:20.764Z,94
2017-12-08T02:03:13.555Z,94
2017-12-08T02:04:16.311Z,94
2017-12-08T02:05:15.595Z,94
2017-12-08T02:06:21.113Z,94
2017-12-08T02:07:16.212Z,94
2017-12-08T02:08:11.466Z,94
2017-12-08T02:09:16.822Z,94
2017-12-08T02:10:09.846Z,94
2017-12-08T02:11:16.790Z,94
2017-12-08T02:12:13.388Z,94
2017-12-08T02:13:13.240Z,94
2017-12-08T02:14:20.153Z,94
2017-12-08T02:15:13.608Z,94
2017-12-08T02:16:15.091Z,94
2017-12-08T02:17:15.902Z,94
2017-12-08T02:19:15.043Z,94
2017-12-08T02:20:13.746Z,94
2017-12-08T02:21:11.014Z,94
2017-12-08T02:22:13.336Z,93
2017-12-08T02:23:14.938Z,93
2017-12-08T02:24:13.631Z,93
2017-12-08T02:26:16.438Z,93
2017-12-08T02:28:12.668Z,92
2017-12-08T02:29:20.179Z,92
2017-12-08T02:32:15.583Z,92
2017-12-08T02:33:11.779Z,92
2017-12-08T02:34:18.861Z,92
2017-12-08T02:35:18.320Z,92
2017-12-08T02:36:16.598Z,92
2017-12-08T02:37:13.716Z,92
2017-12-08T02:38:18.164Z,92
2017-12-08T02:39:12.521Z,92
2017-12-08T02:40:14.061Z,92
2017-12-08T02:41:15.462Z,92
2017-12-08T02:42:16.612Z,92
2017-12-08T02:43:13.355Z,92
2017-12-08T02:44:14.028Z,92
2017-12-08T02:45:09.604Z,92
2017-12-08T02:46:18.189Z,92
2017-12-08T02:47:16.696Z,92
2017-12-08T02:48:14.208Z,92
2017-12-08T02:49:12.875Z,92
2017-12-08T02:50:16.600Z,92
2017-12-08T02:51:22.631Z,92
2017-12-08T02:52:15.592Z,92
2017-12-08T02:53:11.695Z,92
2017-12-08T02:54:13.654Z,92
2017-12-08T02:55:14.776Z,93
2017-12-08T02:56:25.133Z,93
2017-12-08T02:57:11.638Z,93
2017-12-08T02:58:15.965Z,93
2017-12-08T03:00:16.920Z,93
2017-12-08T03:01:09.610Z,93
2017-12-08T03:02:12.749Z,93
2017-12-08T03:03:11.568Z,93
2017-12-08T03:04:14.430Z,93
2017-12-08T03:05:10.581Z,93
2017-12-08T03:08:20.379Z,93
2017-12-08T03:09:31.685Z,93
2017-12-08T03:10:21.935Z,94
2017-12-08T03:11:24.140Z,94
2017-12-08T03:12:22.059Z,94
2017-12-08T03:13:20.976Z,94
2017-12-08T03:14:20.785Z,94
2017-12-08T03:15:26.477Z,94
2017-12-08T03:16:24.232Z,94
2017-12-08T03:17:21.851Z,94
2017-12-08T03:19:34.674Z,94
2017-12-08T03:20:37.160Z,94
2017-12-08T03:21:36.960Z,94
2017-12-08T03:22:38.441Z,94
2017-12-08T03:23:36.198Z,94
2017-12-08T03:24:40.044Z,94
2017-12-08T03:25:33.049Z,94
2017-12-08T03:26:35.244Z,94
2017-12-08T03:27:33.952Z,94
2017-12-08T03:28:34.486Z,94
2017-12-08T03:29:41.838Z,94
2017-12-08T03:30:35.599Z,94
2017-12-08T03:32:34.291Z,94
2017-12-08T03:33:38.199Z,94
2017-12-08T03:34:36.591Z,94
2017-12-08T03:35:36.808Z,95
2017-12-08T03:36:40.473Z,95
2017-12-08T03:37:33.207Z,95
2017-12-08T03:38:33.433Z,95
2017-12-08T03:39:35.299Z,95
2017-12-08T03:40:38.070Z,95
2017-12-08T03:41:43.678Z,95
2017-12-08T03:42:35.780Z,95
2017-12-08T03:43:38.758Z,95
2017-12-08T03:44:36.870Z,95
2017-12-08T03:45:37.646Z,95
2017-12-08T03:46:35.931Z,95
2017-12-08T03:47:36.141Z,95
2017-12-08T03:48:36.326Z,95
2017-12-08T03:49:38.483Z,95
2017-12-08T03:51:33.779Z,95
2017-12-08T03:52:37.287Z,95
2017-12-08T03:53:35.788Z,95
2017-12-08T03:54:38.079Z,95
2017-12-08T03:55:37.092Z,95
2017-12-08T03:56:35.999Z,95
2017-12-08T03:57:41.701Z,95
2017-12-08T04:00:19.485Z,95
2017-12-08T04:00:35.499Z,95
2017-12-08T04:01:37.534Z,95
2017-12-08T04:02:32.322Z,95
2017-12-08T04:03:34.061Z,95
2017-12-08T04:04:32.401Z,95
2017-12-08T04:05:40.300Z,95
2017-12-08T04:06:35.891Z,95
2017-12-08T04:07:32.958Z,95
2017-12-08T04:09:40.965Z,95
2017-12-08T04:12:32.411Z,95
2017-12-08T04:13:34.914Z,95
2017-12-08T04:14:36.542Z,95
2017-12-08T04:15:33.852Z,95
2017-12-08T04:16:32.392Z,95
2017-12-08T04:17:37.491Z,95
2017-12-08T04:18:34.053Z,95
2017-12-08T04:19:34.570Z,95
2017-12-08T04:20:38.423Z,95
2017-12-08T04:21:33.344Z,95
2017-12-08T04:22:36.134Z,95
2017-12-08T04:23:34.054Z,95
2017-12-08T04:24:31.583Z,95
2017-12-08T04:25:36.377Z,95
2017-12-08T04:26:31.054Z,94
2017-12-08T04:27:40.946Z,94
2017-12-08T04:28:49.385Z,94
2017-12-08T04:29:33.898Z,94
2017-12-08T04:30:33.410Z,94
2017-12-08T04:31:46.111Z,94
2017-12-08T04:32:31.188Z,94
2017-12-08T04:33:36.354Z,94
2017-12-08T04:34:34.223Z,94
2017-12-08T04:35:37.669Z,94
2017-12-08T04:36:38.602Z,94
2017-12-08T04:37:34.352Z,94
2017-12-08T04:38:44.114Z,94
2017-12-08T04:39:38.447Z,94
2017-12-08T04:40:32.326Z,94
2017-12-08T04:41:36.823Z,94
2017-12-08T04:42:37.149Z,94
2017-12-08T04:43:39.003Z,94
2017-12-08T04:44:38.219Z,94
2017-12-08T04:45:34.775Z,94
2017-12-08T04:46:47.973Z,94
2017-12-08T04:47:35.690Z,94
2017-12-08T04:48:33.256Z,94
2017-12-08T04:49:36.208Z,94
2017-12-08T04:50:32.528Z,94
2017-12-08T04:52:33.511Z,94
2017-12-08T04:53:35.865Z,94
2017-12-08T04:54:33.307Z,94
2017-12-08T04:56:41.259Z,94
2017-12-08T04:57:36.873Z,93
2017-12-08T04:58:44.925Z,93
2017-12-08T04:59:31.429Z,93
2017-12-08T05:00:34.561Z,93
2017-12-08T05:01:33.624Z,93
2017-12-08T05:02:34.658Z,94
2017-12-08T05:03:32.623Z,94
2017-12-08T05:04:31.504Z,94
2017-12-08T05:05:37.218Z,94
2017-12-08T05:06:32.863Z,94
2017-12-08T05:07:35.704Z,93
2017-12-08T05:08:33.333Z,93
2017-12-08T05:09:33.476Z,93
2017-12-08T05:10:35.414Z,93
2017-12-08T05:11:35.651Z,93
2017-12-08T05:12:33.332Z,92
2017-12-08T05:13:35.070Z,92
2017-12-08T05:14:31.209Z,92
2017-12-08T05:15:34.035Z,92
2017-12-08T05:16:32.676Z,92
2017-12-08T05:17:33.472Z,92
2017-12-08T05:18:35.929Z,92
2017-12-08T05:19:36.429Z,92
2017-12-08T05:20:33.409Z,92
2017-12-08T05:21:37.765Z,92
2017-12-08T05:23:32.864Z,91
2017-12-08T05:24:38.645Z,91
2017-12-08T05:27:15.713Z,91
2017-12-08T05:27:35.635Z,91
2017-12-08T05:28:37.318Z,91
2017-12-08T05:29:37.401Z,91
2017-12-08T05:30:35.677Z,90
2017-12-08T05:32:32.906Z,90
2017-12-08T05:33:33.814Z,90
2017-12-08T05:34:37.213Z,90
2017-12-08T05:35:33.216Z,90
2017-12-08T05:37:51.935Z,90
2017-12-08T05:38:48.467Z,90
2017-12-08T05:39:55.275Z,90
2017-12-08T05:41:50.516Z,90
2017-12-08T05:42:45.806Z,89
2017-12-08T05:43:47.392Z,89
2017-12-08T05:44:49.089Z,89
2017-12-08T05:45:49.537Z,89
2017-12-08T05:46:47.794Z,89
2017-12-08T05:47:48.799Z,89
2017-12-08T05:48:46.305Z,89
2017-12-08T05:49:45.850Z,89
2017-12-08T05:50:48.587Z,89
2017-12-08T05:51:46.999Z,89
2017-12-08T05:52:47.061Z,89
2017-12-08T05:53:49.788Z,89
2017-12-08T05:54:53.327Z,89
2017-12-08T05:55:47.021Z,89
2017-12-08T05:56:48.318Z,89
2017-12-08T05:57:58.637Z,89
2017-12-08T05:58:45.541Z,89
2017-12-08T05:59:47.871Z,89
2017-12-08T06:00:50.356Z,89
2017-12-08T06:01:48.489Z,89
2017-12-08T06:02:45.732Z,89
2017-12-08T06:03:44.091Z,89
2017-12-08T06:04:48.524Z,89
2017-12-08T06:05:48.527Z,89
2017-12-08T06:08:00.713Z,89
2017-12-08T06:09:47.388Z,89
2017-12-08T06:10:45.948Z,89
2017-12-08T06:11:48.438Z,89
2017-12-08T06:12:46.479Z,89
2017-12-08T06:13:48.635Z,89
2017-12-08T06:14:52.486Z,89
2017-12-08T06:15:46.753Z,89
2017-12-08T06:16:49.439Z,89
2017-12-08T06:17:55.725Z,89
2017-12-08T06:18:45.521Z,89
2017-12-08T06:19:50.901Z,89
2017-12-08T06:20:45.856Z,89
2017-12-08T06:21:48.844Z,89
2017-12-08T06:22:49.959Z,89
2017-12-08T06:23:50.311Z,89
2017-12-08T06:24:44.065Z,89
2017-12-08T06:25:52.114Z,89
2017-12-08T06:26:59.802Z,89
2017-12-08T06:29:29.614Z,89
2017-12-08T06:29:50.556Z,89
2017-12-08T06:30:47.865Z,89
2017-12-08T06:31:50.463Z,89
2017-12-08T06:33:53.139Z,88
2017-12-08T06:34:53.026Z,88
2017-12-08T06:35:56.988Z,88
2017-12-08T06:36:51.828Z,88
2017-12-08T06:37:50.359Z,88
2017-12-08T06:38:54.213Z,87
2017-12-08T06:39:51.752Z,87
2017-12-08T06:41:02.720Z,87
2017-12-08T06:41:53.780Z,87
2017-12-08T06:42:53.954Z,87
2017-12-08T06:43:51.461Z,87
2017-12-08T06:44:58.364Z,87
2017-12-08T06:45:50.391Z,87
2017-12-08T06:47:55.739Z,87
2017-12-08T06:48:50.610Z,87
2017-12-08T06:49:50.357Z,87
2017-12-08T06:50:48.715Z,87
2017-12-08T06:51:48.540Z,88
2017-12-08T06:52:50.389Z,88
2017-12-08T06:53:47.968Z,87
2017-12-08T06:54:55.540Z,87
2017-12-08T06:56:47.220Z,87
2017-12-08T06:58:17.976Z,87
2017-12-08T06:59:49.687Z,87
2017-12-08T07:00:51.634Z,87
2017-12-08T07:01:49.368Z,87
2017-12-08T07:02:47.176Z,87
2017-12-08T07:03:50.523Z,87
2017-12-08T07:04:57.949Z,86
2017-12-08T07:05:51.965Z,86
2017-12-08T07:06:48.322Z,86
2017-12-08T07:08:04.039Z,86
2017-12-08T07:08:48.682Z,86
2017-12-08T07:10:47.148Z,85
2017-12-08T07:11:51.296Z,86
2017-12-08T07:12:49.318Z,86
2017-12-08T07:13:53.885Z,86
2017-12-08T07:14:48.327Z,86
2017-12-08T07:16:00.309Z,86
2017-12-08T07:16:51.740Z,86
2017-12-08T07:17:52.089Z,86
2017-12-08T07:18:55.661Z,86
2017-12-08T07:19:51.776Z,86
2017-12-08T07:20:51.169Z,86
2017-12-08T07:21:51.738Z,86
2017-12-08T07:22:57.380Z,86
2017-12-08T07:23:51.137Z,86
2017-12-08T07:24:55.514Z,86
2017-12-08T07:25:56.881Z,86
2017-12-08T07:26:49.300Z,86
2017-12-08T07:27:54.161Z,86
2017-12-08T07:29:49.717Z,86
2017-12-08T07:30:48.394Z,86
2017-12-08T07:31:53.298Z,86
2017-12-08T07:32:48.755Z,86
2017-12-08T07:33:51.522Z,86
2017-12-08T07:34:49.067Z,86
2017-12-08T07:35:46.966Z,86
2017-12-08T07:37:12.717Z,86
2017-12-08T07:38:49.717Z,86
2017-12-08T07:39:49.351Z,86
2017-12-08T07:40:48.480Z,86
2017-12-08T07:41:46.332Z,86
2017-12-08T07:42:46.282Z,86
2017-12-08T07:43:46.022Z,86
2017-12-08T07:44:46.944Z,86
2017-12-08T07:45:53.344Z,86
2017-12-08T07:46:46.632Z,86
2017-12-08T07:47:46.313Z,86
2017-12-08T07:48:46.627Z,86
2017-12-08T07:49:46.141Z,86
2017-12-08T07:50:47.006Z,86
2017-12-08T07:51:46.082Z,86
2017-12-08T07:52:48.455Z,86
2017-12-08T07:53:57.198Z,86
2017-12-08T07:54:46.741Z,86
2017-12-08T07:55:52.162Z,86
2017-12-08T07:56:51.346Z,86
2017-12-08T07:57:48.029Z,86
2017-12-08T07:58:46.434Z,86
2017-12-08T07:59:46.295Z,86
2017-12-08T08:01:47.973Z,86
2017-12-08T08:02:48.398Z,86
2017-12-08T08:03:52.185Z,86
2017-12-08T08:04:54.574Z,86
2017-12-08T08:05:57.194Z,86
2017-12-08T08:07:00.104Z,86
2017-12-08T08:07:52.893Z,85
2017-12-08T08:10:00.198Z,85
2017-12-08T08:10:50.990Z,86
2017-12-08T08:11:50.102Z,86
2017-12-08T08:12:49.759Z,85
2017-12-08T08:13:47.901Z,85
2017-12-08T08:16:04.040Z,85
2017-12-08T08:16:51.184Z,85
2017-12-08T08:17:48.724Z,85
2017-12-08T08:18:47.456Z,85
2017-12-08T08:20:49.604Z,85
2017-12-08T08:21:47.219Z,85
2017-12-08T08:22:47.887Z,85
2017-12-08T08:23:46.687Z,85
2017-12-08T08:24:48.891Z,85
2017-12-08T08:25:48.929Z,85
2017-12-08T08:26:46.595Z,85
2017-12-08T08:38:42.161Z,86
2017-12-08T08:39:43.426Z,86
2017-12-08T08:40:45.690Z,86
2017-12-08T08:41:43.690Z,86
2017-12-08T08:42:45.756Z,86
2017-12-08T08:44:43.651Z,86
2017-12-08T08:45:43.588Z,86
2017-12-08T08:46:43.103Z,86
2017-12-08T08:48:56.788Z,86
2017-12-08T08:49:56.450Z,86
2017-12-08T08:50:56.907Z,86
2017-12-08T08:52:16.265Z,86
2017-12-08T08:52:56.275Z,86
2017-12-08T08:53:56.513Z,86
2017-12-08T08:54:57.304Z,86
2017-12-08T08:55:57.454Z,87
2017-12-08T08:57:00.610Z,87
2017-12-08T08:57:56.412Z,87
2017-12-08T08:58:56.498Z,86
2017-12-08T09:00:59.646Z,86
2017-12-08T09:01:57.470Z,86
2017-12-08T09:03:04.253Z,86
2017-12-08T09:03:56.679Z,86
2017-12-08T09:04:57.430Z,86
2017-12-08T09:05:56.757Z,85
2017-12-08T09:07:56.860Z,85
2017-12-08T09:09:20.036Z,84
2017-12-08T09:09:58.055Z,84
2017-12-08T09:11:01.692Z,84
2017-12-08T09:11:57.987Z,84
2017-12-08T09:13:01.487Z,84
2017-12-08T09:13:57.506Z,83
2017-12-08T09:14:57.072Z,83
2017-12-08T09:16:00.269Z,83
2017-12-08T09:17:08.065Z,83
2017-12-08T09:17:58.570Z,83
2017-12-08T09:19:02.271Z,83
2017-12-08T09:20:01.830Z,83
2017-12-08T09:21:02.551Z,83
2017-12-08T09:22:00.073Z,84
2017-12-08T09:22:59.653Z,84
2017-12-08T09:23:59.314Z,83
2017-12-08T09:25:03.463Z,83
2017-12-08T09:26:00.586Z,83
2017-12-08T09:27:03.400Z,84
2017-12-08T09:28:13.332Z,84
2017-12-08T09:29:02.455Z,84
2017-12-08T09:29:58.707Z,84
2017-12-08T09:30:57.295Z,84
2017-12-08T09:31:57.563Z,83
2017-12-08T09:32:57.462Z,83
2017-12-08T09:33:57.695Z,83
2017-12-08T09:34:57.556Z,83
2017-12-08T09:35:57.233Z,83
2017-12-08T09:37:22.490Z,83
2017-12-08T09:37:56.646Z,83
2017-12-08T09:38:56.342Z,83
2017-12-08T09:39:56.495Z,83
2017-12-08T09:41:14.788Z,83
2017-12-08T09:42:03.087Z,84
2017-12-08T09:43:01.801Z,84
2017-12-08T09:44:02.304Z,84
2017-12-08T09:46:20.814Z,84
2017-12-08T09:47:13.798Z,83
2017-12-08T09:48:03.231Z,83
2017-12-08T09:48:58.202Z,83
2017-12-08T09:49:58.245Z,83
2017-12-08T09:50:56.579Z,83
2017-12-08T09:51:57.089Z,82
2017-12-08T09:52:56.700Z,82
2017-12-08T09:53:56.687Z,82
2017-12-08T09:54:56.904Z,81
2017-12-08T09:55:56.445Z,81
2017-12-08T09:56:58.293Z,80
2017-12-08T09:57:59.590Z,80
2017-12-08T09:58:56.722Z,80
2017-12-08T09:59:57.969Z,80
2017-12-08T10:00:56.752Z,80
2017-12-08T10:01:58.970Z,80
2017-12-08T10:02:57.886Z,80
2017-12-08T10:03:56.477Z,80
2017-12-08T10:04:57.207Z,79
2017-12-08T10:05:58.275Z,79
2017-12-08T10:07:04.384Z,80
2017-12-08T10:08:01.387Z,80
2017-12-08T10:08:58.523Z,80
2017-12-08T10:10:00.208Z,80
2017-12-08T10:11:04.325Z,80
2017-12-08T10:12:05.964Z,80
2017-12-08T10:13:01.129Z,80
2017-12-08T10:14:04.374Z,80
2017-12-08T10:15:00.129Z,80
2017-12-08T10:15:59.278Z,80
2017-12-08T10:17:12.278Z,80
2017-12-08T10:18:01.706Z,79
2017-12-08T10:18:57.139Z,79
2017-12-08T10:20:53.431Z,79
2017-12-08T10:22:02.655Z,79
2017-12-08T10:22:19.415Z,79
2017-12-08T10:23:15.372Z,79
2017-12-08T10:25:13.993Z,79
2017-12-08T10:26:13.907Z,79
2017-12-08T10:28:22.866Z,79
2017-12-08T10:29:21.544Z,79
2017-12-08T10:30:13.782Z,79
2017-12-08T10:31:12.827Z,79
2017-12-08T10:33:13.504Z,79
2017-12-08T10:34:13.517Z,79
2017-12-08T10:35:12.784Z,78
2017-12-08T10:36:12.536Z,78
2017-12-08T10:38:13.120Z,79
2017-12-08T10:39:13.982Z,79
2017-12-08T10:41:14.260Z,78
2017-12-08T10:43:15.231Z,78
2017-12-08T10:44:13.264Z,78
2017-12-08T10:45:12.610Z,78
2017-12-08T10:46:14.372Z,78
2017-12-08T10:47:13.182Z,78
2017-12-08T10:48:12.822Z,79
2017-12-08T10:49:16.870Z,79
2017-12-08T10:51:13.454Z,78
2017-12-08T10:53:12.633Z,78
2017-12-08T10:54:13.955Z,78
2017-12-08T10:55:14.690Z,77
2017-12-08T10:56:13.849Z,77
2017-12-08T10:57:15.597Z,77
2017-12-08T10:58:15.448Z,77
2017-12-08T10:59:13.498Z,77
2017-12-08T11:00:15.811Z,76
2017-12-08T11:01:13.544Z,76
2017-12-08T11:02:13.545Z,76
2017-12-08T11:03:14.418Z,76
2017-12-08T11:04:14.902Z,76
2017-12-08T11:05:12.615Z,76
2017-12-08T11:06:13.837Z,76
2017-12-08T11:07:14.467Z,76
2017-12-08T11:08:12.874Z,76
2017-12-08T11:09:14.240Z,76
2017-12-08T11:10:17.856Z,76
2017-12-08T11:11:38.398Z,77
2017-12-08T11:12:13.829Z,77
2017-12-08T11:13:13.202Z,77
2017-12-08T11:14:12.683Z,77
2017-12-08T11:15:13.483Z,77
2017-12-08T11:16:23.902Z,78
2017-12-08T11:17:15.290Z,78
2017-12-08T11:18:14.165Z,78
2017-12-08T11:19:15.894Z,78
2017-12-08T11:20:13.541Z,78
2017-12-08T11:21:13.057Z,78
2017-12-08T11:22:16.779Z,78
2017-12-08T11:23:24.170Z,77
2017-12-08T11:24:13.485Z,77
2017-12-08T11:26:13.387Z,77
2017-12-08T11:27:19.451Z,77
2017-12-08T11:28:19.729Z,76
2017-12-08T11:29:16.848Z,76
2017-12-08T11:30:19.938Z,76
2017-12-08T11:31:21.405Z,76
2017-12-08T11:32:20.990Z,76
2017-12-08T11:33:28.412Z,76
2017-12-08T11:34:29.824Z,76
2017-12-08T11:35:31.410Z,76
2017-12-08T11:36:46.366Z,76
2017-12-08T11:37:33.510Z,76
2017-12-08T11:38:44.666Z,76
2017-12-08T11:40:15.306Z,76
2017-12-08T11:41:17.037Z,76
2017-12-08T11:42:27.701Z,76
2017-12-08T11:43:16.356Z,76
2017-12-08T11:44:25.173Z,76
2017-12-08T11:45:22.192Z,76
2017-12-08T11:46:23.104Z,76
2017-12-08T11:47:21.282Z,76
2017-12-08T11:48:27.571Z,76
2017-12-08T11:49:34.680Z,76
2017-12-08T11:50:39.975Z,76
2017-12-08T11:51:56.726Z,76
2017-12-08T11:52:23.813Z,76
2017-12-08T11:53:41.997Z,76
2017-12-08T11:54:44.630Z,76
2017-12-08T11:55:40.959Z,76
2017-12-08T11:56:44.471Z,76
2017-12-08T11:57:40.960Z,76
2017-12-08T11:58:40.325Z,76
2017-12-08T12:00:54.935Z,76
2017-12-08T12:01:54.435Z,76
2017-12-08T12:03:15.120Z,76
2017-12-08T12:04:15.880Z,76
2017-12-08T12:05:02.802Z,76
2017-12-08T12:06:33.016Z,76
2017-12-08T12:07:29.629Z,76
2017-12-08T12:08:22.642Z,76
2017-12-08T12:09:35.647Z,76
2017-12-08T12:10:24.503Z,76
2017-12-08T12:12:29.298Z,76
2017-12-08T12:13:28.815Z,76
2017-12-08T12:14:38.640Z,76
2017-12-08T12:16:06.585Z,76
2017-12-08T12:17:27.012Z,76
2017-12-08T12:17:42.580Z,76
2017-12-08T12:18:48.177Z,76
2017-12-08T12:19:54.165Z,76
2017-12-08T12:20:59.687Z,76
2017-12-08T12:22:06.471Z,76
2017-12-08T12:23:07.640Z,76
2017-12-08T12:24:07.035Z,76
2017-12-08T12:25:21.627Z,76
2017-12-08T12:26:22.000Z,76
2017-12-08T12:28:20.408Z,76
2017-12-08T12:29:29.738Z,76
2017-12-08T12:30:22.948Z,76
2017-12-08T12:31:30.410Z,76
2017-12-08T12:32:30.767Z,76
2017-12-08T12:33:30.423Z,76
2017-12-08T12:34:40.022Z,76
2017-12-08T12:35:48.055Z,76
2017-12-08T12:36:46.922Z,76
2017-12-08T12:38:41.531Z,76
2017-12-08T12:40:45.098Z,76
2017-12-08T12:41:42.997Z,76
2017-12-08T12:42:42.962Z,76
2017-12-08T12:43:44.062Z,76
2017-12-08T12:45:07.569Z,76
2017-12-08T12:45:42.597Z,76
2017-12-08T12:46:43.086Z,76
2017-12-08T12:47:51.116Z,76
2017-12-08T12:49:42.875Z,76
2017-12-08T12:50:43.082Z,76
2017-12-08T12:51:43.301Z,76
2017-12-08T12:52:43.200Z,76
2017-12-08T12:53:43.132Z,76
2017-12-08T12:54:42.721Z,76
2017-12-08T12:55:42.696Z,76
2017-12-08T12:56:42.775Z,76
2017-12-08T12:57:46.708Z,76
2017-12-08T12:58:45.385Z,76
2017-12-08T12:59:46.072Z,76
2017-12-08T13:00:47.242Z,76
2017-12-08T13:02:09.648Z,76
2017-12-08T13:02:45.758Z,76
2017-12-08T13:03:57.815Z,76
2017-12-08T13:04:44.647Z,76
2017-12-08T13:05:48.048Z,76
2017-12-08T13:07:45.467Z,89
2017-12-08T13:08:55.653Z,89
2017-12-08T13:09:48.791Z,89
2017-12-08T13:11:18.904Z,90
2017-12-08T13:12:06.660Z,90
2017-12-08T13:12:46.430Z,91
2017-12-08T13:14:00.802Z,91
2017-12-08T13:14:51.615Z,91
2017-12-08T13:16:05.617Z,92
2017-12-08T13:16:46.767Z,92
2017-12-08T13:17:45.279Z,92
2017-12-08T13:18:51.116Z,92
2017-12-08T13:19:56.430Z,92
2017-12-08T13:20:48.662Z,93
2017-12-08T13:21:46.990Z,93
2017-12-08T13:22:49.509Z,93
2017-12-08T13:23:49.481Z,93
2017-12-08T13:24:47.755Z,93
2017-12-08T13:25:46.070Z,94
2017-12-08T13:26:46.862Z,94
2017-12-08T13:27:47.490Z,94
2017-12-08T13:28:47.790Z,94
2017-12-08T13:29:51.992Z,94
2017-12-08T13:30:46.861Z,95
2017-12-08T13:31:45.243Z,95
2017-12-08T13:32:47.367Z,95
2017-12-08T13:33:46.201Z,95
2017-12-08T13:34:47.697Z,95
2017-12-08T13:35:50.092Z,95
2017-12-08T13:36:47.034Z,95
2017-12-08T13:37:47.194Z,95
2017-12-08T13:38:46.667Z,95
2017-12-08T13:39:46.086Z,95
2017-12-08T13:40:45.762Z,95
2017-12-08T13:41:47.044Z,95
2017-12-08T13:42:48.638Z,95
2017-12-08T13:43:45.748Z,95
2017-12-08T13:44:49.776Z,95
2017-12-08T13:45:47.617Z,95
2017-12-08T13:46:47.781Z,95
2017-12-08T13:48:46.402Z,95
2017-12-08T13:49:49.660Z,95
2017-12-08T13:50:47.790Z,95
2017-12-08T13:51:46.958Z,95
2017-12-08T13:52:47.804Z,95
2017-12-08T13:53:46.977Z,95
2017-12-08T13:54:50.949Z,95
2017-12-08T13:55:58.143Z,95
2017-12-08T13:56:46.141Z,95
2017-12-08T13:57:45.676Z,95
2017-12-08T13:58:45.445Z,95
2017-12-08T13:59:46.932Z,95
2017-12-08T14:00:46.464Z,95
2017-12-08T14:02:03.147Z,95
2017-12-08T14:02:49.993Z,95
2017-12-08T14:03:50.375Z,95
2017-12-08T14:04:50.107Z,95
2017-12-08T14:05:47.933Z,95
2017-12-08T14:06:47.064Z,95
2017-12-08T14:07:45.403Z,95
2017-12-08T14:08:49.951Z,95
2017-12-08T14:09:45.380Z,95
2017-12-08T14:10:46.553Z,95
2017-12-08T14:11:46.572Z,95
2017-12-08T14:13:45.429Z,95
2017-12-08T14:14:51.885Z,95
2017-12-08T14:15:47.902Z,95
2017-12-08T14:16:50.613Z,95
2017-12-08T14:17:48.137Z,95
2017-12-08T14:18:55.801Z,95
2017-12-08T14:19:49.080Z,95
2017-12-08T14:20:47.785Z,95
2017-12-08T14:21:48.451Z,95
2017-12-08T14:22:57.476Z,95
2017-12-08T14:23:55.398Z,95
2017-12-08T14:24:53.250Z,95
2017-12-08T14:25:47.140Z,95
2017-12-08T14:26:46.426Z,95
2017-12-08T14:27:48.609Z,95
2017-12-08T14:29:29.856Z,95
2017-12-08T14:29:53.209Z,95
2017-12-08T14:30:46.263Z,95
2017-12-08T14:32:03.806Z,95
2017-12-08T14:33:25.108Z,95
2017-12-08T14:34:01.264Z,94
2017-12-08T14:35:13.846Z,94
2017-12-08T14:35:46.090Z,94
2017-12-08T14:36:54.471Z,94
2017-12-08T14:37:45.414Z,94
2017-12-08T14:39:06.604Z,94
2017-12-08T14:39:57.752Z,94
2017-12-08T14:40:49.121Z,94
2017-12-08T14:41:48.054Z,94
2017-12-08T14:42:46.853Z,94
2017-12-08T14:44:06.536Z,94
2017-12-08T14:44:53.440Z,93
2017-12-08T14:45:58.388Z,93
2017-12-08T14:46:47.181Z,93
2017-12-08T14:47:52.545Z,93
2017-12-08T14:48:46.158Z,93
2017-12-08T14:50:03.293Z,93
2017-12-08T14:51:25.905Z,93
2017-12-08T14:51:46.539Z,93
2017-12-08T14:52:50.282Z,93
2017-12-08T14:53:59.739Z,93
2017-12-08T14:55:50.311Z,93
2017-12-08T14:56:00.427Z,93
2017-12-08T14:57:02.829Z,92
2017-12-08T14:58:01.392Z,92
2017-12-08T14:59:00.708Z,92
2017-12-08T15:00:00.645Z,92
2017-12-08T15:01:00.658Z,92
2017-12-08T15:02:00.562Z,92
2017-12-08T15:03:03.151Z,92
2017-12-08T15:04:01.041Z,92
2017-12-08T15:06:02.368Z,92
2017-12-08T15:07:02.731Z,92
2017-12-08T15:08:01.470Z,92
2017-12-08T15:09:01.034Z,92
2017-12-08T15:10:00.571Z,92
2017-12-08T15:12:01.726Z,92
2017-12-08T15:13:03.829Z,92
2017-12-08T15:14:01.383Z,92
2017-12-08T15:15:00.971Z,92
2017-12-08T15:16:00.995Z,92
2017-12-08T15:17:11.217Z,92
2017-12-08T15:18:01.946Z,92
2017-12-08T15:20:08.381Z,92
2017-12-08T15:21:01.108Z,92
2017-12-08T15:22:00.773Z,92
2017-12-08T15:23:01.028Z,92
2017-12-08T15:24:00.940Z,92
2017-12-08T15:25:03.271Z,91
2017-12-08T15:26:08.636Z,91
2017-12-08T15:27:05.317Z,91
2017-12-08T15:28:10.158Z,91
2017-12-08T15:29:07.733Z,91
2017-12-08T15:30:11.745Z,90
2017-12-08T15:31:00.364Z,90
2017-12-08T15:32:00.781Z,90
2017-12-08T15:33:05.780Z,91
2017-12-08T15:34:00.703Z,91
2017-12-08T15:35:01.421Z,90
2017-12-08T15:36:00.506Z,90
2017-12-08T15:37:01.505Z,90
2017-12-08T15:38:12.022Z,90
2017-12-08T15:39:00.319Z,90
2017-12-08T15:40:00.430Z,90
2017-12-08T15:41:00.508Z,90
2017-12-08T15:43:00.780Z,89
2017-12-08T15:44:00.510Z,89
2017-12-08T15:45:00.818Z,89
2017-12-08T15:46:00.860Z,89
2017-12-08T15:47:03.381Z,89
2017-12-08T15:48:00.610Z,89
2017-12-08T15:49:00.318Z,89
2017-12-08T15:50:00.542Z,89
2017-12-08T15:51:00.820Z,89
2017-12-08T15:52:00.601Z,89
2017-12-08T15:54:00.529Z,89
2017-12-08T15:55:01.385Z,89